Time;durP1;ratioP1;P1;durP2;ratioP2;P2;SDS_P1;SDS_P2;PMS_P1;PMS_P2;Temp;Humidity;BMP_temperature;BMP_pressure;BME280_temperature;BME280_humidity;BME280_pressure;Samples;Min_cycle;Max_cycle;Signal;HPM_P1;HPM_P2
2023/12/06 00:00:24;;;;;;;7.83;4.80;;;;;;;;;;4997192;28;20676;-79
2023/12/06 00:02:50;;;;;;;7.80;5.20;;;;;;;;;;4976248;28;20272;-79
2023/12/06 00:05:16;;;;;;;6.93;5.00;;;;;;;;;;4995395;28;20259;-79
2023/12/06 00:07:43;;;;;;;6.30;4.60;;;;;;;;;;4991237;28;20299;-79
2023/12/06 00:10:09;;;;;;;6.20;4.53;;;;;;;;;;4993316;28;20188;-79
2023/12/06 00:12:35;;;;;;;5.03;4.03;;;;;;;;;;4994281;28;20702;-79
2023/12/06 00:15:02;;;;;;;6.27;4.67;;;;;;;;;;4993016;28;20187;-79
2023/12/06 00:17:28;;;;;;;5.90;4.67;;;;;;;;;;4991893;28;20362;-81
2023/12/06 00:19:54;;;;;;;5.33;4.33;;;;;;;;;;4992557;28;20188;-79
2023/12/06 00:22:20;;;;;;;4.30;3.90;;;;;;;;;;4994476;28;20207;-79
2023/12/06 00:24:46;;;;;;;5.27;4.10;;;;;;;;;;4993278;28;20227;-79
2023/12/06 00:27:13;;;;;;;13.83;6.70;;;;;;;;;;4991551;28;20274;-79
2023/12/06 00:29:39;;;;;;;6.97;4.47;;;;;;;;;;4988621;28;20206;-79
2023/12/06 00:32:05;;;;;;;9.10;5.40;;;;;;;;;;4989568;28;20191;-80
2023/12/06 00:34:31;;;;;;;9.80;5.40;;;;;;;;;;4993442;28;20194;-79
2023/12/06 00:36:57;;;;;;;6.07;4.50;;;;;;;;;;4975041;28;20180;-79
2023/12/06 00:39:23;;;;;;;12.87;5.83;;;;;;;;;;4991425;28;20683;-79
2023/12/06 00:41:49;;;;;;;9.40;5.60;;;;;;;;;;4994122;28;20187;-79
2023/12/06 00:44:16;;;;;;;9.70;5.50;;;;;;;;;;4992120;28;20628;-78
2023/12/06 00:46:42;;;;;;;9.83;5.93;;;;;;;;;;4993332;28;20302;-79
2023/12/06 00:49:09;;;;;;;19.90;9.97;;;;;;;;;;4992796;28;20638;-79
2023/12/06 00:51:36;;;;;;;12.50;6.57;;;;;;;;;;4986960;28;20192;-79
2023/12/06 00:54:02;;;;;;;9.97;5.20;;;;;;;;;;4970713;28;20196;-79
2023/12/06 00:56:28;;;;;;;8.20;5.43;;;;;;;;;;4992333;28;20196;-79
2023/12/06 00:58:54;;;;;;;7.97;4.90;;;;;;;;;;4992603;28;20314;-79
2023/12/06 01:01:21;;;;;;;6.80;4.70;;;;;;;;;;4988588;28;20618;-79
2023/12/06 01:03:48;;;;;;;9.73;5.07;;;;;;;;;;4988758;28;20192;-79
2023/12/06 01:06:14;;;;;;;6.67;4.63;;;;;;;;;;4992865;28;20219;-78
2023/12/06 01:08:40;;;;;;;10.13;5.83;;;;;;;;;;4991829;28;20762;-79
2023/12/06 01:11:07;;;;;;;6.40;4.50;;;;;;;;;;4990457;28;20211;-79
2023/12/06 01:13:33;;;;;;;12.83;6.37;;;;;;;;;;4985344;28;20323;-78
2023/12/06 01:15:59;;;;;;;12.93;6.70;;;;;;;;;;4992719;28;20184;-79
2023/12/06 01:18:25;;;;;;;8.70;5.80;;;;;;;;;;4991602;28;20210;-79
2023/12/06 01:20:51;;;;;;;16.83;8.23;;;;;;;;;;4991460;28;20195;-79
2023/12/06 01:23:18;;;;;;;8.77;5.60;;;;;;;;;;4991406;28;20176;-80
2023/12/06 01:25:44;;;;;;;5.80;4.83;;;;;;;;;;4989777;28;20185;-79
2023/12/06 01:28:10;;;;;;;9.50;5.43;;;;;;;;;;4990744;28;20291;-78
2023/12/06 01:30:36;;;;;;;6.70;4.90;;;;;;;;;;4976328;28;20196;-79
2023/12/06 01:33:02;;;;;;;5.10;4.30;;;;;;;;;;4985279;28;20203;-79
2023/12/06 01:35:28;;;;;;;6.47;4.57;;;;;;;;;;4992418;28;20210;-78
2023/12/06 01:37:56;;;;;;;6.77;5.23;;;;;;;;;;4967603;28;20207;-79
2023/12/06 01:40:22;;;;;;;10.83;6.23;;;;;;;;;;4990229;28;20194;-79
2023/12/06 01:42:48;;;;;;;20.37;9.43;;;;;;;;;;4985775;28;20291;-79
2023/12/06 01:45:15;;;;;;;8.43;5.80;;;;;;;;;;4974909;28;20199;-78
2023/12/06 01:47:41;;;;;;;9.37;5.47;;;;;;;;;;4990280;28;20219;-79
2023/12/06 01:50:08;;;;;;;5.93;4.60;;;;;;;;;;4990898;28;20188;-78
2023/12/06 01:52:34;;;;;;;5.37;4.67;;;;;;;;;;4989964;28;20542;-79
2023/12/06 01:55:01;;;;;;;5.90;4.60;;;;;;;;;;4989757;28;20543;-78
2023/12/06 01:57:30;;;;;;;4.60;4.03;;;;;;;;;;4990678;28;20662;-79
2023/12/06 01:59:57;;;;;;;6.13;4.27;;;;;;;;;;4990977;28;20203;-78
2023/12/06 02:02:25;;;;;;;6.87;4.93;;;;;;;;;;4984607;28;20245;-79
2023/12/06 02:04:51;;;;;;;8.93;5.27;;;;;;;;;;4990570;28;20261;-78
2023/12/06 02:07:18;;;;;;;6.73;5.30;;;;;;;;;;4989118;28;20208;-79
2023/12/06 02:09:44;;;;;;;7.53;5.03;;;;;;;;;;4988844;28;20180;-79
2023/12/06 02:12:10;;;;;;;6.47;5.03;;;;;;;;;;4984957;28;20196;-79
2023/12/06 02:14:36;;;;;;;5.27;4.77;;;;;;;;;;4990275;28;20192;-79
2023/12/06 02:17:04;;;;;;;8.13;5.83;;;;;;;;;;4990143;28;20188;-79
2023/12/06 02:19:30;;;;;;;6.63;5.17;;;;;;;;;;4989716;28;20215;-78
2023/12/06 02:21:57;;;;;;;6.57;5.73;;;;;;;;;;4989706;28;20188;-79
2023/12/06 02:24:25;;;;;;;9.33;5.97;;;;;;;;;;4974276;28;20605;-79
2023/12/06 02:26:54;;;;;;;5.60;5.03;;;;;;;;;;4990148;28;20285;-79
2023/12/06 02:29:20;;;;;;;6.13;4.97;;;;;;;;;;4989075;28;20215;-79
2023/12/06 02:31:46;;;;;;;5.27;4.77;;;;;;;;;;4991983;28;20779;-79
2023/12/06 02:34:15;;;;;;;5.30;4.80;;;;;;;;;;4991475;28;20215;-79
2023/12/06 02:36:42;;;;;;;5.63;4.77;;;;;;;;;;4985276;28;20214;-79
2023/12/06 02:39:09;;;;;;;6.00;5.07;;;;;;;;;;4989563;28;20273;-79
2023/12/06 02:41:35;;;;;;;5.30;4.80;;;;;;;;;;4989929;28;20188;-79
2023/12/06 02:44:01;;;;;;;6.03;5.30;;;;;;;;;;4989643;28;20279;-79
2023/12/06 02:46:28;;;;;;;5.67;5.17;;;;;;;;;;4990835;28;20203;-79
2023/12/06 02:48:56;;;;;;;6.30;5.07;;;;;;;;;;4989794;28;20219;-80
2023/12/06 02:51:23;;;;;;;5.87;5.27;;;;;;;;;;4989123;28;20559;-79
2023/12/06 02:53:49;;;;;;;5.23;4.73;;;;;;;;;;4989813;28;20195;-79
2023/12/06 02:56:15;;;;;;;5.23;4.73;;;;;;;;;;4989558;28;20194;-79
2023/12/06 02:58:41;;;;;;;6.03;5.40;;;;;;;;;;4989857;28;20261;-79
2023/12/06 03:01:07;;;;;;;5.70;5.10;;;;;;;;;;4988583;28;20184;-79
2023/12/06 03:03:34;;;;;;;6.87;6.07;;;;;;;;;;4990797;28;20184;-79
2023/12/06 03:06:00;;;;;;;5.50;5.00;;;;;;;;;;4989913;28;20179;-79
2023/12/06 03:08:26;;;;;;;6.30;4.83;;;;;;;;;;4989113;28;20203;-78
2023/12/06 03:10:53;;;;;;;5.43;4.93;;;;;;;;;;4990607;28;20668;-78
2023/12/06 03:13:19;;;;;;;5.20;4.60;;;;;;;;;;4990152;28;20188;-79
2023/12/06 03:15:45;;;;;;;5.63;5.00;;;;;;;;;;4957127;28;20496;-78
2023/12/06 03:18:11;;;;;;;4.97;4.47;;;;;;;;;;4987442;28;20420;-78
2023/12/06 03:20:37;;;;;;;5.30;4.80;;;;;;;;;;4988681;28;20569;-78
2023/12/06 03:23:04;;;;;;;5.13;4.63;;;;;;;;;;4969849;28;20191;-78
2023/12/06 03:25:30;;;;;;;5.10;4.60;;;;;;;;;;4990756;28;20270;-78
2023/12/06 03:27:57;;;;;;;6.23;5.03;;;;;;;;;;4986350;28;20235;-78
2023/12/06 03:30:23;;;;;;;5.93;5.23;;;;;;;;;;4988637;28;20263;-78
2023/12/06 03:32:50;;;;;;;6.03;4.90;;;;;;;;;;4986150;28;20665;-78
2023/12/06 03:35:16;;;;;;;5.20;4.70;;;;;;;;;;4988457;28;20302;-78
2023/12/06 03:37:42;;;;;;;5.37;4.87;;;;;;;;;;4987288;28;20739;-78
2023/12/06 03:40:08;;;;;;;5.17;4.50;;;;;;;;;;5001680;28;20180;-78
2023/12/06 03:42:34;;;;;;;5.07;4.57;;;;;;;;;;4993141;28;20200;-78
2023/12/06 03:45:00;;;;;;;5.53;4.40;;;;;;;;;;4990552;28;20286;-79
2023/12/06 03:47:26;;;;;;;6.07;4.70;;;;;;;;;;4975683;28;20215;-78
2023/12/06 03:49:53;;;;;;;4.80;4.30;;;;;;;;;;4992894;28;20575;-78
2023/12/06 03:52:19;;;;;;;4.70;4.23;;;;;;;;;;4992167;28;20188;-78
2023/12/06 03:54:45;;;;;;;4.40;3.83;;;;;;;;;;4992467;28;20183;-78
2023/12/06 03:57:12;;;;;;;4.77;4.37;;;;;;;;;;4993716;28;20214;-79
2023/12/06 03:59:38;;;;;;;5.87;4.50;;;;;;;;;;4993350;28;20212;-78
2023/12/06 04:02:04;;;;;;;5.20;4.70;;;;;;;;;;4992988;28;20200;-79
2023/12/06 04:04:30;;;;;;;5.23;4.33;;;;;;;;;;4990334;28;20568;-78
2023/12/06 04:06:57;;;;;;;5.90;4.37;;;;;;;;;;4992063;28;20216;-79
2023/12/06 04:09:23;;;;;;;5.63;4.37;;;;;;;;;;4979856;28;20275;-78
2023/12/06 04:11:49;;;;;;;5.57;3.93;;;;;;;;;;4981846;28;21720;-78
2023/12/06 04:14:15;;;;;;;4.70;4.30;;;;;;;;;;4982288;28;20180;-79
2023/12/06 04:16:42;;;;;;;5.33;4.83;;;;;;;;;;4981287;28;20616;-79
2023/12/06 04:19:09;;;;;;;4.80;4.40;;;;;;;;;;4965577;28;20303;-80
2023/12/06 04:21:35;;;;;;;4.43;4.03;;;;;;;;;;4985651;28;20187;-78
2023/12/06 04:24:01;;;;;;;5.17;4.67;;;;;;;;;;4992270;28;20203;-78
2023/12/06 04:26:27;;;;;;;5.07;4.57;;;;;;;;;;4992261;28;20219;-78
2023/12/06 04:28:53;;;;;;;4.60;4.20;;;;;;;;;;4993368;28;20234;-79
2023/12/06 04:31:19;;;;;;;5.27;4.27;;;;;;;;;;4992192;28;20195;-79
2023/12/06 04:33:46;;;;;;;6.13;4.70;;;;;;;;;;4991165;28;20184;-79
2023/12/06 04:36:12;;;;;;;4.73;4.33;;;;;;;;;;4991964;28;20180;-79
2023/12/06 04:38:38;;;;;;;6.53;4.87;;;;;;;;;;4990251;28;20196;-79
2023/12/06 04:41:04;;;;;;;5.70;5.20;;;;;;;;;;4979995;28;20219;-79
2023/12/06 04:43:30;;;;;;;5.97;4.77;;;;;;;;;;4982309;28;20274;-79
2023/12/06 04:45:56;;;;;;;6.50;5.90;;;;;;;;;;4974703;28;20195;-79
2023/12/06 04:48:23;;;;;;;6.00;5.33;;;;;;;;;;4975438;28;20223;-79
2023/12/06 04:50:49;;;;;;;5.30;4.80;;;;;;;;;;4990805;28;20191;-79
2023/12/06 04:53:15;;;;;;;9.70;7.00;;;;;;;;;;4990686;28;20191;-79
2023/12/06 04:55:41;;;;;;;6.83;6.23;;;;;;;;;;4992056;28;20630;-79
2023/12/06 04:58:08;;;;;;;6.67;5.83;;;;;;;;;;4991064;28;20210;-79
2023/12/06 05:00:35;;;;;;;7.00;6.30;;;;;;;;;;4991913;28;20195;-79
2023/12/06 05:03:02;;;;;;;5.90;5.40;;;;;;;;;;4974333;28;20308;-79
2023/12/06 05:05:28;;;;;;;5.70;5.20;;;;;;;;;;4975532;28;20191;-79
2023/12/06 05:07:55;;;;;;;6.57;5.30;;;;;;;;;;4987478;28;20226;-79
2023/12/06 05:10:22;;;;;;;6.07;5.23;;;;;;;;;;4983102;28;20192;-79
2023/12/06 05:12:48;;;;;;;6.83;5.40;;;;;;;;;;4974858;28;20196;-79
2023/12/06 05:15:14;;;;;;;5.73;4.80;;;;;;;;;;4991200;28;20235;-79
2023/12/06 05:17:41;;;;;;;5.07;4.57;;;;;;;;;;4991132;28;20204;-79
2023/12/06 05:20:10;;;;;;;5.70;4.80;;;;;;;;;;4990893;28;20202;-79
2023/12/06 05:22:37;;;;;;;4.90;4.40;;;;;;;;;;4990032;28;20183;-79
2023/12/06 05:25:03;;;;;;;5.93;4.67;;;;;;;;;;4991544;28;20192;-79
2023/12/06 05:27:30;;;;;;;5.90;5.00;;;;;;;;;;4974657;28;20215;-79
2023/12/06 05:29:56;;;;;;;6.80;6.20;;;;;;;;;;4987698;28;20194;-78
2023/12/06 05:32:22;;;;;;;7.33;5.47;;;;;;;;;;4992390;28;20199;-78
2023/12/06 05:34:48;;;;;;;7.03;5.77;;;;;;;;;;4974215;28;20199;-79
2023/12/06 05:37:14;;;;;;;6.37;5.20;;;;;;;;;;4990223;28;20188;-78
2023/12/06 05:39:42;;;;;;;9.33;6.13;;;;;;;;;;4990530;28;20214;-80
2023/12/06 05:42:08;;;;;;;6.80;5.70;;;;;;;;;;4989117;28;20273;-79
2023/12/06 05:44:34;;;;;;;6.40;5.70;;;;;;;;;;4983040;28;20512;-79
2023/12/06 05:47:00;;;;;;;7.17;5.50;;;;;;;;;;4989806;28;20212;-79
2023/12/06 05:49:26;;;;;;;6.13;5.53;;;;;;;;;;4985396;28;20687;-79
2023/12/06 05:51:52;;;;;;;5.63;4.90;;;;;;;;;;4987497;28;20507;-79
2023/12/06 05:54:19;;;;;;;5.60;5.00;;;;;;;;;;4974448;28;20283;-79
2023/12/06 05:56:45;;;;;;;7.00;5.30;;;;;;;;;;4973639;28;20215;-79
2023/12/06 05:59:11;;;;;;;6.40;5.43;;;;;;;;;;4991388;28;20215;-79
2023/12/06 06:01:37;;;;;;;5.83;4.97;;;;;;;;;;4989023;28;20690;-79
2023/12/06 06:04:03;;;;;;;5.93;4.87;;;;;;;;;;4986008;28;20295;-79
2023/12/06 06:06:34;;;;;;;6.70;6.00;;;;;;;;;;4987813;28;20741;-79
2023/12/06 06:09:01;;;;;;;7.40;5.87;;;;;;;;;;4966935;28;20239;-79
2023/12/06 06:11:28;;;;;;;8.03;5.90;;;;;;;;;;4990483;28;20303;-79
2023/12/06 06:13:54;;;;;;;8.07;6.33;;;;;;;;;;4989403;28;20211;-79
2023/12/06 06:16:21;;;;;;;7.40;6.50;;;;;;;;;;4990167;28;20178;-78
2023/12/06 06:18:47;;;;;;;9.00;7.23;;;;;;;;;;4989877;28;20203;-79
2023/12/06 06:21:13;;;;;;;8.97;7.63;;;;;;;;;;4988892;28;20282;-80
2023/12/06 06:23:40;;;;;;;9.33;7.60;;;;;;;;;;4997617;28;20191;-79
2023/12/06 06:26:08;;;;;;;9.17;7.93;;;;;;;;;;4981307;28;20247;-79
2023/12/06 06:28:34;;;;;;;9.43;8.03;;;;;;;;;;4984672;28;20554;-79
2023/12/06 06:31:00;;;;;;;10.33;8.30;;;;;;;;;;4968764;28;20188;-80
2023/12/06 06:33:27;;;;;;;11.13;8.10;;;;;;;;;;4974040;28;20195;-78
2023/12/06 06:35:53;;;;;;;13.87;9.47;;;;;;;;;;4987974;28;20203;-78
2023/12/06 06:38:19;;;;;;;12.73;9.87;;;;;;;;;;4988700;28;20226;-78
2023/12/06 06:40:45;;;;;;;12.40;9.63;;;;;;;;;;4983099;28;20752;-78
2023/12/06 06:43:12;;;;;;;12.03;9.40;;;;;;;;;;4984760;28;20191;-79
2023/12/06 06:45:42;;;;;;;9.50;7.97;;;;;;;;;;4974872;28;20226;-79
2023/12/06 06:48:09;;;;;;;12.37;8.50;;;;;;;;;;4989514;28;20237;-82
2023/12/06 06:50:36;;;;;;;9.43;8.17;;;;;;;;;;4973810;28;20216;-82
2023/12/06 06:53:03;;;;;;;10.93;8.43;;;;;;;;;;4990703;28;20188;-81
2023/12/06 06:55:29;;;;;;;13.23;8.80;;;;;;;;;;4974529;28;20187;-81
2023/12/06 06:57:56;;;;;;;12.27;9.30;;;;;;;;;;4983836;28;20214;-80
2023/12/06 07:00:23;;;;;;;12.27;9.73;;;;;;;;;;4993009;28;20192;-77
2023/12/06 07:02:49;;;;;;;14.17;10.20;;;;;;;;;;4977408;28;20188;-79
2023/12/06 07:05:15;;;;;;;12.97;10.30;;;;;;;;;;4990854;28;20200;-81
2023/12/06 07:07:41;;;;;;;14.03;11.10;;;;;;;;;;4970136;28;20216;-80
2023/12/06 07:10:09;;;;;;;16.47;12.10;;;;;;;;;;4996964;28;20242;-80
2023/12/06 07:12:36;;;;;;;16.93;12.43;;;;;;;;;;4979131;28;20192;-78
2023/12/06 07:15:03;;;;;;;14.87;11.30;;;;;;;;;;4983835;28;20667;-73
2023/12/06 07:17:30;;;;;;;15.03;11.67;;;;;;;;;;4965606;28;20212;-73
2023/12/06 07:19:57;;;;;;;16.80;11.77;;;;;;;;;;4988499;28;20195;-72
2023/12/06 07:22:23;;;;;;;14.83;11.13;;;;;;;;;;4988997;28;20214;-72
2023/12/06 07:24:49;;;;;;;14.97;11.47;;;;;;;;;;4973897;28;20249;-73
2023/12/06 07:27:16;;;;;;;15.23;10.97;;;;;;;;;;4989249;28;20207;-73
2023/12/06 07:29:43;;;;;;;17.93;12.80;;;;;;;;;;4989758;28;20208;-72
2023/12/06 07:32:09;;;;;;;16.17;11.93;;;;;;;;;;4990932;28;20664;-72
2023/12/06 07:34:35;;;;;;;17.90;12.70;;;;;;;;;;4987634;28;20557;-72
2023/12/06 07:37:01;;;;;;;17.20;12.27;;;;;;;;;;4985216;28;20534;-72
2023/12/06 07:39:27;;;;;;;15.77;11.57;;;;;;;;;;4989808;28;20226;-73
2023/12/06 07:41:53;;;;;;;15.20;11.10;;;;;;;;;;4991182;28;20333;-73
2023/12/06 07:44:21;;;;;;;15.63;12.20;;;;;;;;;;4989696;28;20568;-72
2023/12/06 07:46:48;;;;;;;15.07;11.77;;;;;;;;;;4989964;28;20234;-74
2023/12/06 07:49:14;;;;;;;15.77;12.50;;;;;;;;;;4990033;28;20203;-73
2023/12/06 07:51:40;;;;;;;16.33;13.03;;;;;;;;;;5005437;28;20195;-74
2023/12/06 07:54:07;;;;;;;16.00;11.93;;;;;;;;;;4990981;28;20207;-74
2023/12/06 07:56:33;;;;;;;14.73;11.83;;;;;;;;;;4973655;28;20260;-73
2023/12/06 07:59:00;;;;;;;14.60;12.20;;;;;;;;;;4990533;28;20707;-74
2023/12/06 08:01:31;;;;;;;13.87;11.00;;;;;;;;;;4990083;28;20554;-74
2023/12/06 08:04:00;;;;;;;14.97;11.47;;;;;;;;;;4988440;28;20195;-74
2023/12/06 08:06:27;;;;;;;15.27;11.17;;;;;;;;;;4971494;28;20559;-74
2023/12/06 08:08:54;;;;;;;13.33;11.20;;;;;;;;;;4990946;28;20236;-74
2023/12/06 08:11:20;;;;;;;12.97;10.27;;;;;;;;;;4993965;28;20250;-74
2023/12/06 08:13:47;;;;;;;13.27;10.13;;;;;;;;;;4994673;28;20202;-74
2023/12/06 08:16:13;;;;;;;14.67;10.43;;;;;;;;;;4989915;28;20199;-73
2023/12/06 08:18:40;;;;;;;12.37;9.90;;;;;;;;;;4990422;28;20203;-74
2023/12/06 08:21:08;;;;;;;12.87;10.57;;;;;;;;;;4987658;28;20184;-74
2023/12/06 08:23:34;;;;;;;10.97;9.60;;;;;;;;;;4989993;28;20624;-74
2023/12/06 08:26:01;;;;;;;10.73;9.27;;;;;;;;;;4992520;28;20222;-74
2023/12/06 08:28:27;;;;;;;11.43;9.20;;;;;;;;;;4994627;28;20239;-75
2023/12/06 08:30:53;;;;;;;11.50;9.47;;;;;;;;;;4994993;28;20188;-75
2023/12/06 08:33:19;;;;;;;12.50;9.93;;;;;;;;;;4995076;28;20963;-74
2023/12/06 08:35:46;;;;;;;11.63;9.20;;;;;;;;;;4993097;28;20263;-74
2023/12/06 08:38:12;;;;;;;11.43;9.73;;;;;;;;;;4976936;28;20298;-74
2023/12/06 08:40:38;;;;;;;12.07;10.07;;;;;;;;;;4994619;28;20184;-74
2023/12/06 08:43:04;;;;;;;10.80;9.20;;;;;;;;;;4993709;28;20215;-74
2023/12/06 08:45:33;;;;;;;11.23;9.47;;;;;;;;;;4994096;28;20218;-74
2023/12/06 08:47:59;;;;;;;10.53;9.27;;;;;;;;;;4991234;28;20224;-74
2023/12/06 08:50:26;;;;;;;13.27;10.23;;;;;;;;;;4993649;28;20187;-74
2023/12/06 08:52:52;;;;;;;11.07;9.37;;;;;;;;;;4992439;28;20180;-74
2023/12/06 08:55:18;;;;;;;12.53;9.40;;;;;;;;;;4992370;28;20690;-74
2023/12/06 08:57:44;;;;;;;10.50;8.90;;;;;;;;;;4993465;28;20672;-74
2023/12/06 09:00:12;;;;;;;10.53;8.57;;;;;;;;;;4993873;28;20612;-74
2023/12/06 09:02:45;;;;;;;10.33;9.10;;;;;;;;;;4993664;28;20184;-74
2023/12/06 09:05:11;;;;;;;9.87;8.63;;;;;;;;;;4991644;28;20207;-75
2023/12/06 09:07:38;;;;;;;10.27;8.70;;;;;;;;;;4993141;28;20637;-74
2023/12/06 09:10:04;;;;;;;11.03;8.90;;;;;;;;;;4993597;28;20664;-74
2023/12/06 09:12:31;;;;;;;12.03;9.27;;;;;;;;;;4991632;28;20196;-73
2023/12/06 09:14:57;;;;;;;12.50;9.23;;;;;;;;;;4992123;28;20238;-74
2023/12/06 09:17:23;;;;;;;10.90;9.67;;;;;;;;;;4990844;28;20195;-74
2023/12/06 09:19:51;;;;;;;10.10;9.00;;;;;;;;;;4991123;28;20672;-74
2023/12/06 09:22:18;;;;;;;9.87;8.33;;;;;;;;;;4993027;28;20199;-74
2023/12/06 09:24:44;;;;;;;10.70;9.40;;;;;;;;;;4993046;28;20216;-74
2023/12/06 09:27:10;;;;;;;10.43;8.90;;;;;;;;;;4992737;28;20260;-75
2023/12/06 09:29:36;;;;;;;10.57;9.10;;;;;;;;;;4992442;28;20205;-74
2023/12/06 09:32:04;;;;;;;9.37;8.43;;;;;;;;;;4992790;28;20180;-74
2023/12/06 09:34:30;;;;;;;11.40;9.80;;;;;;;;;;4992242;28;20260;-74
2023/12/06 09:36:56;;;;;;;11.47;9.37;;;;;;;;;;4991104;28;20632;-74
2023/12/06 09:39:22;;;;;;;11.30;10.00;;;;;;;;;;4990815;28;20231;-74
2023/12/06 09:41:49;;;;;;;10.30;9.17;;;;;;;;;;4992894;28;20229;-74
2023/12/06 09:44:18;;;;;;;10.00;8.60;;;;;;;;;;4991573;28;20572;-74
2023/12/06 09:46:45;;;;;;;11.90;9.47;;;;;;;;;;4992643;28;20767;-74
2023/12/06 09:49:11;;;;;;;10.77;9.33;;;;;;;;;;4990668;28;20203;-74
2023/12/06 09:51:37;;;;;;;10.90;9.30;;;;;;;;;;4992642;28;20188;-74
2023/12/06 09:54:04;;;;;;;10.27;9.13;;;;;;;;;;4991239;28;20190;-74
2023/12/06 09:56:32;;;;;;;10.20;9.13;;;;;;;;;;4972371;28;20238;-74
2023/12/06 09:58:58;;;;;;;10.73;9.20;;;;;;;;;;4988725;28;20287;-75
2023/12/06 10:01:24;;;;;;;12.13;9.97;;;;;;;;;;4991104;28;20184;-74
2023/12/06 10:03:50;;;;;;;11.50;9.87;;;;;;;;;;4973850;28;20667;-74
2023/12/06 10:06:17;;;;;;;12.27;9.97;;;;;;;;;;4991075;28;20327;-74
2023/12/06 10:08:48;;;;;;;11.20;10.00;;;;;;;;;;4992107;28;20294;-74
2023/12/06 10:11:15;;;;;;;12.67;9.97;;;;;;;;;;4992313;28;20202;-74
2023/12/06 10:13:41;;;;;;;11.57;10.17;;;;;;;;;;4991182;28;20184;-74
2023/12/06 10:16:19;;;;;;;11.67;9.60;;;;;;;;;;4991156;28;20179;-74
2023/12/06 10:18:55;;;;;;;10.53;9.27;;;;;;;;;;4989110;28;20199;-75
2023/12/06 10:21:21;;;;;;;12.40;9.30;;;;;;;;;;4989601;28;20175;-74
2023/12/06 10:23:57;;;;;;;12.10;10.07;;;;;;;;;;4974970;28;20196;-74
2023/12/06 10:26:26;;;;;;;12.83;9.53;;;;;;;;;;4990499;28;20199;-76
2023/12/06 10:28:53;;;;;;;12.20;9.97;;;;;;;;;;4991926;28;20223;-74
2023/12/06 10:31:19;;;;;;;12.50;9.53;;;;;;;;;;4992125;28;20279;-74
2023/12/06 10:33:46;;;;;;;12.07;9.97;;;;;;;;;;4991318;28;20211;-74
2023/12/06 10:36:12;;;;;;;11.57;9.83;;;;;;;;;;4991447;28;20184;-74
2023/12/06 10:38:42;;;;;;;11.97;10.23;;;;;;;;;;4989392;28;20207;-74
2023/12/06 10:41:11;;;;;;;14.70;11.90;;;;;;;;;;4990706;28;20237;-74
2023/12/06 10:43:37;;;;;;;13.60;10.33;;;;;;;;;;4972313;28;20548;-74
2023/12/06 10:46:03;;;;;;;12.10;10.30;;;;;;;;;;4991721;28;20206;-74
2023/12/06 10:48:30;;;;;;;11.90;9.70;;;;;;;;;;4990274;28;20292;-75
2023/12/06 10:50:57;;;;;;;13.13;11.00;;;;;;;;;;4989149;28;20275;-74
2023/12/06 10:53:23;;;;;;;12.30;10.53;;;;;;;;;;4989809;28;20777;-75
2023/12/06 10:55:50;;;;;;;12.87;10.63;;;;;;;;;;4991680;28;20191;-74
2023/12/06 10:58:17;;;;;;;12.80;10.50;;;;;;;;;;4986964;28;20499;-73
2023/12/06 11:00:43;;;;;;;12.50;10.10;;;;;;;;;;4988817;28;20848;-73
2023/12/06 11:03:10;;;;;;;11.00;9.50;;;;;;;;;;4988829;28;20192;-74
2023/12/06 11:05:39;;;;;;;11.53;9.77;;;;;;;;;;4989296;28;20251;-72
2023/12/06 11:08:05;;;;;;;13.20;10.33;;;;;;;;;;4990613;28;20215;-75
2023/12/06 11:10:48;;;;;;;12.13;9.70;;;;;;;;;;4990797;28;20195;-73
2023/12/06 11:13:27;;;;;;;10.50;8.77;;;;;;;;;;4989928;28;20206;-72
2023/12/06 11:15:53;;;;;;;9.73;7.93;;;;;;;;;;4973961;28;20195;-72
2023/12/06 11:18:21;;;;;;;10.43;8.93;;;;;;;;;;4988878;28;20207;-72
2023/12/06 11:20:48;;;;;;;11.43;9.60;;;;;;;;;;4987448;28;20266;-72
2023/12/06 11:23:16;;;;;;;11.27;9.00;;;;;;;;;;4990762;28;20192;-72
2023/12/06 11:25:43;;;;;;;12.73;9.87;;;;;;;;;;4974000;28;20290;-74
2023/12/06 11:28:13;;;;;;;11.30;9.03;;;;;;;;;;4991082;28;20226;-77
2023/12/06 11:30:49;;;;;;;12.53;9.20;;;;;;;;;;4992287;28;20195;-78
2023/12/06 11:33:15;;;;;;;10.30;9.00;;;;;;;;;;4992474;28;20214;-79
2023/12/06 11:35:51;;;;;;;10.33;8.40;;;;;;;;;;4975290;28;20544;-77
2023/12/06 11:38:17;;;;;;;9.83;8.83;;;;;;;;;;4992472;28;20215;-80
2023/12/06 11:40:53;;;;;;;10.00;8.83;;;;;;;;;;4999039;28;20195;-80
2023/12/06 11:43:31;;;;;;;9.50;8.27;;;;;;;;;;4992393;28;20192;-80
2023/12/06 11:46:03;;;;;;;10.73;9.07;;;;;;;;;;4993165;28;20206;-80
2023/12/06 11:48:30;;;;;;;12.00;9.50;;;;;;;;;;4983954;28;20307;-81
2023/12/06 11:50:59;;;;;;;12.60;9.60;;;;;;;;;;4975282;28;20219;-80
2023/12/06 11:53:28;;;;;;;14.47;10.13;;;;;;;;;;4976202;28;20212;-80
2023/12/06 11:55:55;;;;;;;11.70;10.00;;;;;;;;;;4988727;28;20196;-80
2023/12/06 11:58:22;;;;;;;11.83;9.80;;;;;;;;;;5006413;28;20235;-80
2023/12/06 12:00:54;;;;;;;13.27;9.90;;;;;;;;;;4996236;28;20645;-80
2023/12/06 12:03:20;;;;;;;14.10;10.40;;;;;;;;;;4969658;28;20921;-80
2023/12/06 12:05:49;;;;;;;12.53;10.03;;;;;;;;;;4981126;28;20226;-80
2023/12/06 12:08:16;;;;;;;20.97;12.37;;;;;;;;;;4994219;28;20223;-80
2023/12/06 12:10:42;;;;;;;19.60;12.23;;;;;;;;;;4998059;28;20183;-80
2023/12/06 12:13:20;;;;;;;16.00;11.50;;;;;;;;;;4980666;28;20206;-81
2023/12/06 12:15:57;;;;;;;14.07;10.67;;;;;;;;;;4992462;28;20188;-81
2023/12/06 12:18:24;;;;;;;14.10;10.67;;;;;;;;;;4994208;28;20258;-80
2023/12/06 12:20:50;;;;;;;12.30;9.67;;;;;;;;;;4975908;28;20195;-80
2023/12/06 12:23:16;;;;;;;15.13;12.23;;;;;;;;;;4995080;28;20184;-80
2023/12/06 12:25:49;;;;;;;18.07;14.07;;;;;;;;;;4996847;28;20187;-80
2023/12/06 12:28:19;;;;;;;18.17;15.67;;;;;;;;;;4994940;28;20721;-80
2023/12/06 12:30:46;;;;;;;17.50;14.60;;;;;;;;;;4987510;28;20230;-80
2023/12/06 12:33:13;;;;;;;16.17;11.33;;;;;;;;;;4996946;28;20191;-80
2023/12/06 12:35:48;;;;;;;21.20;18.90;;;;;;;;;;4996568;28;20195;-80
2023/12/06 12:38:16;;;;;;;16.90;14.13;;;;;;;;;;4963800;28;20215;-80
2023/12/06 12:40:43;;;;;;;15.17;13.57;;;;;;;;;;4980072;28;20588;-80
2023/12/06 12:43:11;;;;;;;13.83;11.57;;;;;;;;;;4987465;28;20255;-81
2023/12/06 12:45:38;;;;;;;13.43;11.27;;;;;;;;;;4995250;28;20200;-80
2023/12/06 12:48:05;;;;;;;12.93;9.97;;;;;;;;;;4992791;28;20695;-80
2023/12/06 12:50:32;;;;;;;14.23;11.17;;;;;;;;;;4990013;28;20651;-79
2023/12/06 12:52:58;;;;;;;12.07;10.03;;;;;;;;;;4991658;28;21807;-81
2023/12/06 12:55:26;;;;;;;12.87;10.20;;;;;;;;;;4977498;28;20255;-79
2023/12/06 12:57:52;;;;;;;11.67;9.23;;;;;;;;;;4976036;28;20226;-80
2023/12/06 13:00:30;;;;;;;12.57;10.20;;;;;;;;;;4977890;28;20191;-85
2023/12/06 13:02:57;;;;;;;15.30;11.43;;;;;;;;;;4980040;28;20187;-86
2023/12/06 13:05:25;;;;;;;21.00;16.90;;;;;;;;;;4976535;28;20199;-80
2023/12/06 13:07:52;;;;;;;16.47;12.63;;;;;;;;;;4992515;28;20278;-81
2023/12/06 13:10:18;;;;;;;13.37;10.87;;;;;;;;;;4977774;28;20597;-80
2023/12/06 13:12:44;;;;;;;15.50;11.37;;;;;;;;;;4994259;28;20195;-80
2023/12/06 13:15:10;;;;;;;11.83;10.03;;;;;;;;;;4976379;28;20294;-80
2023/12/06 13:17:37;;;;;;;13.70;11.47;;;;;;;;;;4992522;28;20192;-80
2023/12/06 13:20:05;;;;;;;13.47;10.53;;;;;;;;;;4993223;28;20195;-80
2023/12/06 13:22:32;;;;;;;10.90;9.77;;;;;;;;;;4985018;28;20207;-81
2023/12/06 13:24:58;;;;;;;10.97;9.40;;;;;;;;;;4994484;28;20188;-80
2023/12/06 13:27:24;;;;;;;12.53;10.03;;;;;;;;;;4994919;28;21229;-81
2023/12/06 13:29:50;;;;;;;12.97;10.37;;;;;;;;;;4992412;28;20184;-81
2023/12/06 13:32:17;;;;;;;11.83;10.07;;;;;;;;;;4977492;28;20270;-81
2023/12/06 13:34:43;;;;;;;13.20;10.13;;;;;;;;;;4995450;28;20191;-81
2023/12/06 13:37:13;;;;;;;9.80;8.60;;;;;;;;;;4977629;28;20195;-82
2023/12/06 13:39:42;;;;;;;10.13;8.33;;;;;;;;;;4980875;28;20234;-80
2023/12/06 13:42:09;;;;;;;10.60;8.20;;;;;;;;;;5002580;28;20198;-80
2023/12/06 13:44:35;;;;;;;9.63;8.13;;;;;;;;;;4994522;28;20285;-81
2023/12/06 13:47:01;;;;;;;11.03;8.70;;;;;;;;;;4992186;28;20223;-81
2023/12/06 13:49:29;;;;;;;12.10;9.10;;;;;;;;;;4987875;28;20291;-82
2023/12/06 13:51:55;;;;;;;11.97;10.10;;;;;;;;;;4987727;28;20188;-82
2023/12/06 13:54:21;;;;;;;12.03;9.63;;;;;;;;;;4974613;28;20186;-80
2023/12/06 13:56:48;;;;;;;12.40;9.80;;;;;;;;;;4989657;28;20684;-80
2023/12/06 13:59:16;;;;;;;12.37;9.33;;;;;;;;;;4970704;28;20219;-80
2023/12/06 14:01:43;;;;;;;12.87;10.10;;;;;;;;;;4976544;28;20188;-80
2023/12/06 14:04:09;;;;;;;15.17;11.27;;;;;;;;;;4978778;28;20215;-80
2023/12/06 14:06:37;;;;;;;12.23;10.03;;;;;;;;;;4994018;28;20672;-80
2023/12/06 14:09:03;;;;;;;10.77;9.50;;;;;;;;;;4979137;28;20218;-81
2023/12/06 14:11:29;;;;;;;13.77;10.27;;;;;;;;;;4991175;28;20199;-80
2023/12/06 14:13:55;;;;;;;11.83;9.50;;;;;;;;;;4977713;28;20188;-81
2023/12/06 14:16:22;;;;;;;11.30;9.00;;;;;;;;;;4992929;28;20191;-80
2023/12/06 14:18:51;;;;;;;15.83;10.53;;;;;;;;;;4990396;28;20692;-79
2023/12/06 14:21:17;;;;;;;13.33;11.00;;;;;;;;;;4993675;28;20191;-81
2023/12/06 14:23:44;;;;;;;13.57;10.93;;;;;;;;;;4979040;28;20195;-82
2023/12/06 14:26:10;;;;;;;14.67;11.47;;;;;;;;;;4993644;28;20864;-80
2023/12/06 14:28:37;;;;;;;13.47;11.30;;;;;;;;;;4977336;28;20575;-80
2023/12/06 14:31:04;;;;;;;15.63;11.83;;;;;;;;;;4992904;28;20188;-80